sensor_id;sensor_type;location;lat;lon;timestamp;P1;durP1;ratioP1;P2;durP2;ratioP2
45909;SDS011;31622;55.416;37.840;2023-04-25T00:00:33;9.52;;;5.80;;
45909;SDS011;31622;55.416;37.840;2023-04-25T00:02:59;9.10;;;5.72;;
45909;SDS011;31622;55.416;37.840;2023-04-25T00:05:25;9.40;;;5.72;;
45909;SDS011;31622;55.416;37.840;2023-04-25T00:07:51;8.50;;;5.97;;
45909;SDS011;31622;55.416;37.840;2023-04-25T00:10:18;9.32;;;5.95;;
45909;SDS011;31622;55.416;37.840;2023-04-25T00:12:44;8.45;;;5.60;;
45909;SDS011;31622;55.416;37.840;2023-04-25T00:15:11;8.90;;;5.95;;
45909;SDS011;31622;55.416;37.840;2023-04-25T00:17:37;11.30;;;6.07;;
45909;SDS011;31622;55.416;37.840;2023-04-25T00:20:03;7.70;;;5.60;;
45909;SDS011;31622;55.416;37.840;2023-04-25T00:22:32;12.48;;;5.50;;
45909;SDS011;31622;55.416;37.840;2023-04-25T00:24:59;11.27;;;5.30;;
45909;SDS011;31622;55.416;37.840;2023-04-25T00:27:26;6.95;;;5.13;;
45909;SDS011;31622;55.416;37.840;2023-04-25T00:29:52;7.53;;;5.13;;
45909;SDS011;31622;55.416;37.840;2023-04-25T00:32:17;9.50;;;5.25;;
45909;SDS011;31622;55.416;37.840;2023-04-25T00:34:43;7.85;;;4.97;;
45909;SDS011;31622;55.416;37.840;2023-04-25T00:37:09;9.02;;;5.18;;
45909;SDS011;31622;55.416;37.840;2023-04-25T00:39:35;8.48;;;5.57;;
45909;SDS011;31622;55.416;37.840;2023-04-25T00:42:01;9.70;;;5.57;;
45909;SDS011;31622;55.416;37.840;2023-04-25T00:44:29;7.65;;;5.00;;
45909;SDS011;31622;55.416;37.840;2023-04-25T00:46:55;9.13;;;5.25;;
45909;SDS011;31622;55.416;37.840;2023-04-25T00:49:24;11.82;;;5.15;;
45909;SDS011;31622;55.416;37.840;2023-04-25T00:51:50;9.77;;;5.07;;
45909;SDS011;31622;55.416;37.840;2023-04-25T00:54:16;7.93;;;4.90;;
45909;SDS011;31622;55.416;37.840;2023-04-25T00:56:41;8.68;;;4.97;;
45909;SDS011;31622;55.416;37.840;2023-04-25T00:59:09;7.50;;;5.60;;
45909;SDS011;31622;55.416;37.840;2023-04-25T01:01:35;9.10;;;5.50;;
45909;SDS011;31622;55.416;37.840;2023-04-25T01:04:01;7.57;;;5.32;;
45909;SDS011;31622;55.416;37.840;2023-04-25T01:06:27;8.55;;;5.35;;
45909;SDS011;31622;55.416;37.840;2023-04-25T01:08:53;10.30;;;5.22;;
45909;SDS011;31622;55.416;37.840;2023-04-25T01:11:21;11.00;;;5.35;;
45909;SDS011;31622;55.416;37.840;2023-04-25T01:13:47;9.85;;;5.05;;
45909;SDS011;31622;55.416;37.840;2023-04-25T01:16:12;8.63;;;4.88;;
45909;SDS011;31622;55.416;37.840;2023-04-25T01:18:39;7.32;;;5.03;;
45909;SDS011;31622;55.416;37.840;2023-04-25T01:21:06;9.50;;;5.47;;
45909;SDS011;31622;55.416;37.840;2023-04-25T01:23:33;9.35;;;5.15;;
45909;SDS011;31622;55.416;37.840;2023-04-25T01:25:59;7.65;;;5.10;;
45909;SDS011;31622;55.416;37.840;2023-04-25T01:28:26;8.02;;;4.90;;
45909;SDS011;31622;55.416;37.840;2023-04-25T01:30:53;6.63;;;4.47;;
45909;SDS011;31622;55.416;37.840;2023-04-25T01:33:21;8.35;;;4.50;;
45909;SDS011;31622;55.416;37.840;2023-04-25T01:35:48;12.73;;;5.55;;
45909;SDS011;31622;55.416;37.840;2023-04-25T01:38:14;10.57;;;5.22;;
45909;SDS011;31622;55.416;37.840;2023-04-25T01:40:41;10.73;;;5.03;;
45909;SDS011;31622;55.416;37.840;2023-04-25T01:43:07;11.13;;;4.35;;
45909;SDS011;31622;55.416;37.840;2023-04-25T01:45:38;10.93;;;5.07;;
45909;SDS011;31622;55.416;37.840;2023-04-25T01:48:08;7.32;;;5.32;;
45909;SDS011;31622;55.416;37.840;2023-04-25T01:50:38;6.40;;;4.85;;
45909;SDS011;31622;55.416;37.840;2023-04-25T01:53:13;9.35;;;5.13;;
45909;SDS011;31622;55.416;37.840;2023-04-25T01:55:41;10.55;;;5.45;;
45909;SDS011;31622;55.416;37.840;2023-04-25T01:58:10;11.48;;;5.35;;
45909;SDS011;31622;55.416;37.840;2023-04-25T02:00:58;10.88;;;5.32;;
45909;SDS011;31622;55.416;37.840;2023-04-25T02:03:29;7.70;;;5.28;;
45909;SDS011;31622;55.416;37.840;2023-04-25T02:05:57;12.73;;;5.72;;
45909;SDS011;31622;55.416;37.840;2023-04-25T02:08:24;7.90;;;4.93;;
45909;SDS011;31622;55.416;37.840;2023-04-25T02:10:53;11.40;;;5.07;;
45909;SDS011;31622;55.416;37.840;2023-04-25T02:13:19;8.05;;;4.65;;
45909;SDS011;31622;55.416;37.840;2023-04-25T02:15:56;8.63;;;4.60;;
45909;SDS011;31622;55.416;37.840;2023-04-25T02:18:22;8.13;;;5.32;;
45909;SDS011;31622;55.416;37.840;2023-04-25T02:20:48;11.07;;;5.75;;
45909;SDS011;31622;55.416;37.840;2023-04-25T02:23:14;7.65;;;5.03;;
45909;SDS011;31622;55.416;37.840;2023-04-25T02:25:40;9.30;;;4.97;;
45909;SDS011;31622;55.416;37.840;2023-04-25T02:28:07;9.07;;;5.10;;
45909;SDS011;31622;55.416;37.840;2023-04-25T02:30:32;9.57;;;5.32;;
45909;SDS011;31622;55.416;37.840;2023-04-25T02:32:58;6.95;;;4.97;;
45909;SDS011;31622;55.416;37.840;2023-04-25T02:35:24;8.70;;;5.38;;
45909;SDS011;31622;55.416;37.840;2023-04-25T02:37:52;7.25;;;4.68;;
45909;SDS011;31622;55.416;37.840;2023-04-25T02:40:18;8.55;;;5.15;;
45909;SDS011;31622;55.416;37.840;2023-04-25T02:42:44;10.00;;;5.60;;
45909;SDS011;31622;55.416;37.840;2023-04-25T02:45:11;9.73;;;5.10;;
45909;SDS011;31622;55.416;37.840;2023-04-25T02:47:36;6.97;;;4.60;;
45909;SDS011;31622;55.416;37.840;2023-04-25T02:50:02;7.57;;;5.05;;
45909;SDS011;31622;55.416;37.840;2023-04-25T02:52:28;8.68;;;4.65;;
45909;SDS011;31622;55.416;37.840;2023-04-25T02:55:03;7.25;;;4.90;;
45909;SDS011;31622;55.416;37.840;2023-04-25T02:57:30;10.02;;;5.22;;
45909;SDS011;31622;55.416;37.840;2023-04-25T02:59:56;6.65;;;4.85;;
45909;SDS011;31622;55.416;37.840;2023-04-25T03:02:22;9.10;;;4.55;;
45909;SDS011;31622;55.416;37.840;2023-04-25T03:04:48;6.53;;;4.68;;
45909;SDS011;31622;55.416;37.840;2023-04-25T03:07:13;8.48;;;4.53;;
45909;SDS011;31622;55.416;37.840;2023-04-25T03:09:39;8.65;;;4.93;;
45909;SDS011;31622;55.416;37.840;2023-04-25T03:12:06;7.90;;;4.65;;
45909;SDS011;31622;55.416;37.840;2023-04-25T03:14:33;6.00;;;4.63;;
45909;SDS011;31622;55.416;37.840;2023-04-25T03:16:58;5.22;;;4.22;;
45909;SDS011;31622;55.416;37.840;2023-04-25T03:19:24;5.88;;;4.53;;
45909;SDS011;31622;55.416;37.840;2023-04-25T03:21:50;9.32;;;5.60;;
45909;SDS011;31622;55.416;37.840;2023-04-25T03:24:16;9.80;;;4.88;;
45909;SDS011;31622;55.416;37.840;2023-04-25T03:26:42;9.40;;;4.93;;
45909;SDS011;31622;55.416;37.840;2023-04-25T03:29:08;7.43;;;4.60;;
45909;SDS011;31622;55.416;37.840;2023-04-25T03:31:35;10.00;;;4.63;;
45909;SDS011;31622;55.416;37.840;2023-04-25T03:34:01;8.38;;;4.82;;
45909;SDS011;31622;55.416;37.840;2023-04-25T03:36:28;8.55;;;4.70;;
45909;SDS011;31622;55.416;37.840;2023-04-25T03:42:34;12.63;;;4.57;;
45909;SDS011;31622;55.416;37.840;2023-04-25T03:45:00;9.57;;;4.82;;
45909;SDS011;31622;55.416;37.840;2023-04-25T03:47:27;9.80;;;5.00;;
45909;SDS011;31622;55.416;37.840;2023-04-25T03:49:53;8.10;;;4.35;;
45909;SDS011;31622;55.416;37.840;2023-04-25T03:52:23;15.00;;;5.28;;
45909;SDS011;31622;55.416;37.840;2023-04-25T03:54:49;6.43;;;4.72;;
45909;SDS011;31622;55.416;37.840;2023-04-25T03:57:18;7.40;;;4.93;;
45909;SDS011;31622;55.416;37.840;2023-04-25T03:59:43;7.57;;;4.13;;
45909;SDS011;31622;55.416;37.840;2023-04-25T04:02:12;6.63;;;4.60;;
45909;SDS011;31622;55.416;37.840;2023-04-25T04:04:38;7.65;;;4.20;;
45909;SDS011;31622;55.416;37.840;2023-04-25T04:07:05;9.65;;;4.63;;
45909;SDS011;31622;55.416;37.840;2023-04-25T04:09:35;6.78;;;4.60;;
45909;SDS011;31622;55.416;37.840;2023-04-25T04:12:05;9.40;;;4.63;;
45909;SDS011;31622;55.416;37.840;2023-04-25T04:14:34;9.13;;;5.05;;
45909;SDS011;31622;55.416;37.840;2023-04-25T04:17:00;8.07;;;4.95;;
45909;SDS011;31622;55.416;37.840;2023-04-25T04:19:27;10.05;;;5.38;;
45909;SDS011;31622;55.416;37.840;2023-04-25T04:22:11;10.25;;;5.75;;
45909;SDS011;31622;55.416;37.840;2023-04-25T04:24:38;8.60;;;5.22;;
45909;SDS011;31622;55.416;37.840;2023-04-25T04:27:06;26.08;;;8.55;;
45909;SDS011;31622;55.416;37.840;2023-04-25T04:29:35;20.20;;;10.23;;
45909;SDS011;31622;55.416;37.840;2023-04-25T04:32:20;13.45;;;7.07;;
45909;SDS011;31622;55.416;37.840;2023-04-25T04:34:46;11.18;;;6.63;;
45909;SDS011;31622;55.416;37.840;2023-04-25T04:37:14;14.63;;;6.43;;
45909;SDS011;31622;55.416;37.840;2023-04-25T04:39:41;16.50;;;7.97;;
45909;SDS011;31622;55.416;37.840;2023-04-25T04:42:27;18.58;;;8.10;;
45909;SDS011;31622;55.416;37.840;2023-04-25T04:45:02;18.17;;;7.15;;
45909;SDS011;31622;55.416;37.840;2023-04-25T04:47:44;16.90;;;7.00;;
45909;SDS011;31622;55.416;37.840;2023-04-25T04:50:30;18.83;;;6.82;;
45909;SDS011;31622;55.416;37.840;2023-04-25T04:53:14;20.63;;;7.88;;
45909;SDS011;31622;55.416;37.840;2023-04-25T04:56:01;16.42;;;6.50;;
45909;SDS011;31622;55.416;37.840;2023-04-25T04:58:56;14.38;;;6.70;;
45909;SDS011;31622;55.416;37.840;2023-04-25T05:01:28;11.77;;;6.03;;
45909;SDS011;31622;55.416;37.840;2023-04-25T05:04:13;12.23;;;6.55;;
45909;SDS011;31622;55.416;37.840;2023-04-25T05:06:39;10.90;;;5.40;;
45909;SDS011;31622;55.416;37.840;2023-04-25T05:09:34;12.57;;;5.35;;
45909;SDS011;31622;55.416;37.840;2023-04-25T05:12:26;10.43;;;5.53;;
45909;SDS011;31622;55.416;37.840;2023-04-25T05:15:12;12.57;;;5.00;;
45909;SDS011;31622;55.416;37.840;2023-04-25T05:17:50;24.42;;;6.75;;
45909;SDS011;31622;55.416;37.840;2023-04-25T05:20:37;15.68;;;5.97;;
45909;SDS011;31622;55.416;37.840;2023-04-25T05:23:23;14.30;;;6.13;;
45909;SDS011;31622;55.416;37.840;2023-04-25T05:26:11;20.88;;;5.47;;
45909;SDS011;31622;55.416;37.840;2023-04-25T05:29:01;9.98;;;4.35;;
45909;SDS011;31622;55.416;37.840;2023-04-25T05:31:43;7.57;;;3.93;;
45909;SDS011;31622;55.416;37.840;2023-04-25T05:34:13;10.45;;;4.55;;
45909;SDS011;31622;55.416;37.840;2023-04-25T05:36:48;10.32;;;3.92;;
45909;SDS011;31622;55.416;37.840;2023-04-25T05:39:15;12.93;;;4.65;;
45909;SDS011;31622;55.416;37.840;2023-04-25T05:42:11;14.02;;;4.57;;
45909;SDS011;31622;55.416;37.840;2023-04-25T05:45:12;11.32;;;4.13;;
45909;SDS011;31622;55.416;37.840;2023-04-25T05:47:50;10.52;;;4.47;;
45909;SDS011;31622;55.416;37.840;2023-04-25T05:50:36;8.93;;;4.45;;
45909;SDS011;31622;55.416;37.840;2023-04-25T05:53:31;7.45;;;3.90;;
45909;SDS011;31622;55.416;37.840;2023-04-25T05:55:59;9.63;;;3.83;;
45909;SDS011;31622;55.416;37.840;2023-04-25T05:58:26;7.85;;;4.10;;
45909;SDS011;31622;55.416;37.840;2023-04-25T06:00:53;7.22;;;3.65;;
45909;SDS011;31622;55.416;37.840;2023-04-25T06:03:19;6.00;;;3.78;;
45909;SDS011;31622;55.416;37.840;2023-04-25T06:05:45;5.25;;;3.47;;
45909;SDS011;31622;55.416;37.840;2023-04-25T06:08:11;10.68;;;4.70;;
45909;SDS011;31622;55.416;37.840;2023-04-25T06:10:37;8.40;;;3.60;;
45909;SDS011;31622;55.416;37.840;2023-04-25T06:13:03;7.82;;;3.67;;
45909;SDS011;31622;55.416;37.840;2023-04-25T06:15:31;6.68;;;3.90;;
45909;SDS011;31622;55.416;37.840;2023-04-25T06:17:58;8.40;;;3.45;;
45909;SDS011;31622;55.416;37.840;2023-04-25T06:20:24;6.97;;;3.88;;
45909;SDS011;31622;55.416;37.840;2023-04-25T06:22:51;5.65;;;3.83;;
45909;SDS011;31622;55.416;37.840;2023-04-25T06:25:18;8.38;;;3.30;;
45909;SDS011;31622;55.416;37.840;2023-04-25T06:27:43;5.63;;;3.13;;
45909;SDS011;31622;55.416;37.840;2023-04-25T06:30:11;6.28;;;3.30;;
45909;SDS011;31622;55.416;37.840;2023-04-25T06:32:38;7.35;;;3.30;;
45909;SDS011;31622;55.416;37.840;2023-04-25T06:35:04;12.70;;;3.60;;
45909;SDS011;31622;55.416;37.840;2023-04-25T06:37:32;6.90;;;2.97;;
45909;SDS011;31622;55.416;37.840;2023-04-25T06:39:58;7.63;;;2.63;;
45909;SDS011;31622;55.416;37.840;2023-04-25T06:42:23;9.32;;;2.80;;
45909;SDS011;31622;55.416;37.840;2023-04-25T06:44:56;4.70;;;2.42;;
45909;SDS011;31622;55.416;37.840;2023-04-25T06:47:22;5.05;;;2.80;;
45909;SDS011;31622;55.416;37.840;2023-04-25T06:49:48;6.18;;;2.28;;
45909;SDS011;31622;55.416;37.840;2023-04-25T06:52:15;5.07;;;2.60;;
45909;SDS011;31622;55.416;37.840;2023-04-25T06:54:43;4.95;;;2.42;;
45909;SDS011;31622;55.416;37.840;2023-04-25T06:57:28;4.72;;;2.40;;
45909;SDS011;31622;55.416;37.840;2023-04-25T07:00:04;5.10;;;2.28;;
45909;SDS011;31622;55.416;37.840;2023-04-25T07:02:35;4.07;;;2.08;;
45909;SDS011;31622;55.416;37.840;2023-04-25T07:05:02;5.88;;;2.15;;
45909;SDS011;31622;55.416;37.840;2023-04-25T07:07:30;6.65;;;2.47;;
45909;SDS011;31622;55.416;37.840;2023-04-25T07:09:57;5.20;;;2.75;;
45909;SDS011;31622;55.416;37.840;2023-04-25T07:12:23;4.68;;;2.40;;
45909;SDS011;31622;55.416;37.840;2023-04-25T07:14:49;6.90;;;2.30;;
45909;SDS011;31622;55.416;37.840;2023-04-25T07:17:15;5.35;;;2.05;;
45909;SDS011;31622;55.416;37.840;2023-04-25T07:19:41;6.43;;;1.88;;
45909;SDS011;31622;55.416;37.840;2023-04-25T07:22:08;4.63;;;1.85;;
45909;SDS011;31622;55.416;37.840;2023-04-25T07:24:35;5.57;;;1.80;;
45909;SDS011;31622;55.416;37.840;2023-04-25T07:27:01;6.10;;;2.20;;
45909;SDS011;31622;55.416;37.840;2023-04-25T07:29:38;5.50;;;2.17;;
45909;SDS011;31622;55.416;37.840;2023-04-25T07:32:04;4.78;;;2.25;;
45909;SDS011;31622;55.416;37.840;2023-04-25T07:34:30;6.00;;;2.47;;
45909;SDS011;31622;55.416;37.840;2023-04-25T07:36:56;4.22;;;2.08;;
45909;SDS011;31622;55.416;37.840;2023-04-25T07:39:25;5.78;;;2.22;;
45909;SDS011;31622;55.416;37.840;2023-04-25T07:41:51;7.35;;;2.33;;
45909;SDS011;31622;55.416;37.840;2023-04-25T07:44:22;9.27;;;3.77;;
45909;SDS011;31622;55.416;37.840;2023-04-25T07:46:48;7.03;;;2.92;;
45909;SDS011;31622;55.416;37.840;2023-04-25T07:49:14;9.60;;;3.30;;
45909;SDS011;31622;55.416;37.840;2023-04-25T07:51:42;7.30;;;2.58;;
45909;SDS011;31622;55.416;37.840;2023-04-25T07:54:14;9.53;;;2.67;;
45909;SDS011;31622;55.416;37.840;2023-04-25T07:56:45;13.75;;;2.30;;
45909;SDS011;31622;55.416;37.840;2023-04-25T07:59:11;7.70;;;2.72;;
45909;SDS011;31622;55.416;37.840;2023-04-25T08:01:39;13.93;;;3.80;;
45909;SDS011;31622;55.416;37.840;2023-04-25T08:04:06;5.75;;;3.03;;
45909;SDS011;31622;55.416;37.840;2023-04-25T08:06:46;5.20;;;3.05;;
45909;SDS011;31622;55.416;37.840;2023-04-25T08:09:16;8.32;;;3.20;;
45909;SDS011;31622;55.416;37.840;2023-04-25T08:11:42;9.45;;;3.03;;
45909;SDS011;31622;55.416;37.840;2023-04-25T08:14:11;7.60;;;2.83;;
45909;SDS011;31622;55.416;37.840;2023-04-25T08:16:38;6.65;;;2.95;;
45909;SDS011;31622;55.416;37.840;2023-04-25T08:19:04;5.45;;;2.50;;
45909;SDS011;31622;55.416;37.840;2023-04-25T08:21:31;3.78;;;2.13;;
45909;SDS011;31622;55.416;37.840;2023-04-25T08:24:00;6.07;;;4.05;;
45909;SDS011;31622;55.416;37.840;2023-04-25T08:26:32;7.18;;;4.50;;
45909;SDS011;31622;55.416;37.840;2023-04-25T08:28:59;7.78;;;4.60;;
45909;SDS011;31622;55.416;37.840;2023-04-25T08:31:25;9.88;;;7.53;;
45909;SDS011;31622;55.416;37.840;2023-04-25T08:33:59;6.25;;;4.32;;
45909;SDS011;31622;55.416;37.840;2023-04-25T08:36:45;5.38;;;3.10;;
45909;SDS011;31622;55.416;37.840;2023-04-25T08:39:37;6.18;;;3.88;;
45909;SDS011;31622;55.416;37.840;2023-04-25T08:42:26;4.65;;;3.33;;
45909;SDS011;31622;55.416;37.840;2023-04-25T08:44:53;4.03;;;2.42;;
45909;SDS011;31622;55.416;37.840;2023-04-25T08:47:20;5.85;;;2.28;;
45909;SDS011;31622;55.416;37.840;2023-04-25T08:49:51;9.05;;;2.40;;
45909;SDS011;31622;55.416;37.840;2023-04-25T08:52:21;6.35;;;2.13;;
45909;SDS011;31622;55.416;37.840;2023-04-25T08:54:48;3.40;;;1.98;;
45909;SDS011;31622;55.416;37.840;2023-04-25T08:57:17;8.32;;;2.38;;
45909;SDS011;31622;55.416;37.840;2023-04-25T08:59:45;4.32;;;1.90;;
45909;SDS011;31622;55.416;37.840;2023-04-25T09:02:12;7.07;;;1.85;;
45909;SDS011;31622;55.416;37.840;2023-04-25T09:04:46;7.63;;;1.98;;
45909;SDS011;31622;55.416;37.840;2023-04-25T09:07:12;2.95;;;1.95;;
45909;SDS011;31622;55.416;37.840;2023-04-25T09:09:41;3.97;;;1.90;;
45909;SDS011;31622;55.416;37.840;2023-04-25T09:12:07;5.95;;;2.15;;
45909;SDS011;31622;55.416;37.840;2023-04-25T09:14:32;4.40;;;2.00;;
45909;SDS011;31622;55.416;37.840;2023-04-25T09:17:17;4.60;;;1.85;;
45909;SDS011;31622;55.416;37.840;2023-04-25T09:19:46;2.63;;;1.63;;
45909;SDS011;31622;55.416;37.840;2023-04-25T09:22:20;4.28;;;2.25;;
45909;SDS011;31622;55.416;37.840;2023-04-25T09:24:48;7.47;;;2.10;;
45909;SDS011;31622;55.416;37.840;2023-04-25T09:27:20;4.43;;;1.95;;
45909;SDS011;31622;55.416;37.840;2023-04-25T09:30:01;4.85;;;1.90;;
45909;SDS011;31622;55.416;37.840;2023-04-25T09:32:39;2.92;;;1.80;;
45909;SDS011;31622;55.416;37.840;2023-04-25T09:35:05;4.60;;;1.80;;
45909;SDS011;31622;55.416;37.840;2023-04-25T09:37:31;3.58;;;1.85;;
45909;SDS011;31622;55.416;37.840;2023-04-25T09:40:15;4.38;;;1.75;;
45909;SDS011;31622;55.416;37.840;2023-04-25T09:43:09;3.05;;;1.70;;
45909;SDS011;31622;55.416;37.840;2023-04-25T09:45:42;2.63;;;1.58;;
45909;SDS011;31622;55.416;37.840;2023-04-25T09:48:20;3.78;;;1.80;;
45909;SDS011;31622;55.416;37.840;2023-04-25T09:51:08;4.53;;;1.60;;
45909;SDS011;31622;55.416;37.840;2023-04-25T09:53:36;5.07;;;2.05;;
45909;SDS011;31622;55.416;37.840;2023-04-25T09:56:13;4.90;;;2.00;;
45909;SDS011;31622;55.416;37.840;2023-04-25T09:58:39;2.97;;;1.60;;
45909;SDS011;31622;55.416;37.840;2023-04-25T10:01:06;4.15;;;1.70;;
45909;SDS011;31622;55.416;37.840;2023-04-25T10:03:42;3.50;;;1.95;;
45909;SDS011;31622;55.416;37.840;2023-04-25T10:06:37;5.40;;;1.60;;
45909;SDS011;31622;55.416;37.840;2023-04-25T10:09:03;3.08;;;1.65;;
45909;SDS011;31622;55.416;37.840;2023-04-25T10:11:29;4.80;;;2.03;;
45909;SDS011;31622;55.416;37.840;2023-04-25T10:13:56;5.50;;;1.65;;
45909;SDS011;31622;55.416;37.840;2023-04-25T10:16:22;3.28;;;1.42;;
45909;SDS011;31622;55.416;37.840;2023-04-25T10:18:49;4.25;;;1.50;;
45909;SDS011;31622;55.416;37.840;2023-04-25T10:21:15;3.92;;;1.30;;
45909;SDS011;31622;55.416;37.840;2023-04-25T10:23:41;2.15;;;1.40;;
45909;SDS011;31622;55.416;37.840;2023-04-25T10:26:07;5.28;;;1.75;;
45909;SDS011;31622;55.416;37.840;2023-04-25T10:31:26;4.82;;;1.70;;
45909;SDS011;31622;55.416;37.840;2023-04-25T10:33:52;2.30;;;1.40;;
45909;SDS011;31622;55.416;37.840;2023-04-25T10:36:19;4.90;;;1.48;;
45909;SDS011;31622;55.416;37.840;2023-04-25T10:38:49;4.65;;;1.77;;
45909;SDS011;31622;55.416;37.840;2023-04-25T10:41:17;3.17;;;1.52;;
45909;SDS011;31622;55.416;37.840;2023-04-25T10:43:48;6.60;;;1.70;;
45909;SDS011;31622;55.416;37.840;2023-04-25T10:46:33;6.97;;;1.60;;
45909;SDS011;31622;55.416;37.840;2023-04-25T10:49:01;4.20;;;1.67;;
45909;SDS011;31622;55.416;37.840;2023-04-25T10:51:30;2.50;;;1.48;;
45909;SDS011;31622;55.416;37.840;2023-04-25T10:56:30;2.83;;;1.65;;
45909;SDS011;31622;55.416;37.840;2023-04-25T10:59:04;3.25;;;1.30;;
45909;SDS011;31622;55.416;37.840;2023-04-25T11:01:36;4.60;;;1.55;;
45909;SDS011;31622;55.416;37.840;2023-04-25T11:04:03;2.63;;;1.30;;
45909;SDS011;31622;55.416;37.840;2023-04-25T11:06:42;2.97;;;1.67;;
45909;SDS011;31622;55.416;37.840;2023-04-25T11:09:17;2.20;;;1.60;;
45909;SDS011;31622;55.416;37.840;2023-04-25T11:11:42;2.30;;;1.70;;
45909;SDS011;31622;55.416;37.840;2023-04-25T11:14:08;4.80;;;1.85;;
45909;SDS011;31622;55.416;37.840;2023-04-25T11:16:34;5.82;;;1.85;;
45909;SDS011;31622;55.416;37.840;2023-04-25T11:19:01;4.88;;;1.48;;
45909;SDS011;31622;55.416;37.840;2023-04-25T11:21:27;3.95;;;1.85;;
45909;SDS011;31622;55.416;37.840;2023-04-25T11:23:53;4.90;;;1.58;;
45909;SDS011;31622;55.416;37.840;2023-04-25T11:26:20;4.00;;;1.60;;
45909;SDS011;31622;55.416;37.840;2023-04-25T11:28:48;8.10;;;2.25;;
45909;SDS011;31622;55.416;37.840;2023-04-25T11:31:14;6.32;;;2.08;;
45909;SDS011;31622;55.416;37.840;2023-04-25T11:33:40;2.83;;;1.70;;
45909;SDS011;31622;55.416;37.840;2023-04-25T11:36:07;5.70;;;1.73;;
45909;SDS011;31622;55.416;37.840;2023-04-25T11:38:33;2.92;;;2.10;;
45909;SDS011;31622;55.416;37.840;2023-04-25T11:40:59;3.33;;;2.00;;
45909;SDS011;31622;55.416;37.840;2023-04-25T11:43:25;3.38;;;2.08;;
45909;SDS011;31622;55.416;37.840;2023-04-25T11:45:51;3.30;;;2.03;;
45909;SDS011;31622;55.416;37.840;2023-04-25T11:48:20;4.70;;;1.80;;
45909;SDS011;31622;55.416;37.840;2023-04-25T11:50:46;3.13;;;1.95;;
45909;SDS011;31622;55.416;37.840;2023-04-25T11:53:11;4.65;;;2.08;;
45909;SDS011;31622;55.416;37.840;2023-04-25T11:55:38;2.97;;;1.88;;
45909;SDS011;31622;55.416;37.840;2023-04-25T11:58:05;4.88;;;1.70;;
45909;SDS011;31622;55.416;37.840;2023-04-25T12:00:31;4.85;;;1.90;;
45909;SDS011;31622;55.416;37.840;2023-04-25T12:02:57;4.82;;;2.10;;
45909;SDS011;31622;55.416;37.840;2023-04-25T12:05:24;2.88;;;1.60;;
45909;SDS011;31622;55.416;37.840;2023-04-25T12:07:51;4.28;;;2.25;;
45909;SDS011;31622;55.416;37.840;2023-04-25T12:10:17;3.97;;;1.98;;
45909;SDS011;31622;55.416;37.840;2023-04-25T12:12:44;4.53;;;1.90;;
45909;SDS011;31622;55.416;37.840;2023-04-25T12:15:11;2.35;;;1.73;;
45909;SDS011;31622;55.416;37.840;2023-04-25T12:17:40;4.03;;;1.90;;
45909;SDS011;31622;55.416;37.840;2023-04-25T12:20:07;3.38;;;1.83;;
45909;SDS011;31622;55.416;37.840;2023-04-25T12:22:51;6.10;;;2.25;;
45909;SDS011;31622;55.416;37.840;2023-04-25T12:28:36;3.45;;;1.65;;
45909;SDS011;31622;55.416;37.840;2023-04-25T12:30:59;4.50;;;2.00;;
45909;SDS011;31622;55.416;37.840;2023-04-25T12:33:27;4.22;;;2.08;;
45909;SDS011;31622;55.416;37.840;2023-04-25T12:35:57;2.65;;;1.73;;
45909;SDS011;31622;55.416;37.840;2023-04-25T12:38:27;3.20;;;2.05;;
45909;SDS011;31622;55.416;37.840;2023-04-25T12:40:59;4.00;;;2.22;;
45909;SDS011;31622;55.416;37.840;2023-04-25T12:43:24;3.90;;;1.90;;
45909;SDS011;31622;55.416;37.840;2023-04-25T12:45:54;3.70;;;1.85;;
45909;SDS011;31622;55.416;37.840;2023-04-25T12:48:20;2.53;;;2.00;;
45909;SDS011;31622;55.416;37.840;2023-04-25T12:50:47;4.32;;;2.35;;
45909;SDS011;31622;55.416;37.840;2023-04-25T12:53:20;3.55;;;2.10;;
45909;SDS011;31622;55.416;37.840;2023-04-25T12:55:46;4.25;;;2.50;;
45909;SDS011;31622;55.416;37.840;2023-04-25T12:58:13;4.93;;;2.70;;
45909;SDS011;31622;55.416;37.840;2023-04-25T13:00:39;8.32;;;2.80;;
45909;SDS011;31622;55.416;37.840;2023-04-25T13:03:04;7.13;;;2.83;;
45909;SDS011;31622;55.416;37.840;2023-04-25T13:05:30;9.15;;;2.65;;
45909;SDS011;31622;55.416;37.840;2023-04-25T13:07:56;5.95;;;2.80;;
45909;SDS011;31622;55.416;37.840;2023-04-25T13:10:22;7.68;;;3.47;;
45909;SDS011;31622;55.416;37.840;2023-04-25T13:12:48;6.25;;;2.55;;
45909;SDS011;31622;55.416;37.840;2023-04-25T13:15:13;5.40;;;2.72;;
45909;SDS011;31622;55.416;37.840;2023-04-25T13:17:41;7.82;;;2.58;;
45909;SDS011;31622;55.416;37.840;2023-04-25T13:20:07;5.43;;;2.50;;
45909;SDS011;31622;55.416;37.840;2023-04-25T13:22:35;4.72;;;2.63;;
45909;SDS011;31622;55.416;37.840;2023-04-25T13:25:02;7.15;;;2.60;;
45909;SDS011;31622;55.416;37.840;2023-04-25T13:27:28;5.90;;;2.38;;
45909;SDS011;31622;55.416;37.840;2023-04-25T13:29:54;5.75;;;2.47;;
45909;SDS011;31622;55.416;37.840;2023-04-25T13:32:19;6.82;;;3.05;;
45909;SDS011;31622;55.416;37.840;2023-04-25T13:34:45;5.68;;;2.92;;
45909;SDS011;31622;55.416;37.840;2023-04-25T13:37:11;4.47;;;2.60;;
45909;SDS011;31622;55.416;37.840;2023-04-25T13:39:37;7.55;;;3.50;;
45909;SDS011;31622;55.416;37.840;2023-04-25T13:42:02;5.68;;;2.75;;
45909;SDS011;31622;55.416;37.840;2023-04-25T13:44:28;5.88;;;3.30;;
45909;SDS011;31622;55.416;37.840;2023-04-25T13:46:54;7.63;;;3.30;;
45909;SDS011;31622;55.416;37.840;2023-04-25T13:49:19;10.57;;;3.30;;
45909;SDS011;31622;55.416;37.840;2023-04-25T13:51:45;5.05;;;3.17;;
45909;SDS011;31622;55.416;37.840;2023-04-25T13:54:11;4.45;;;2.70;;
45909;SDS011;31622;55.416;37.840;2023-04-25T13:56:37;6.22;;;3.15;;
45909;SDS011;31622;55.416;37.840;2023-04-25T13:59:02;8.70;;;3.05;;
45909;SDS011;31622;55.416;37.840;2023-04-25T14:01:28;7.28;;;3.17;;
45909;SDS011;31622;55.416;37.840;2023-04-25T14:03:57;8.05;;;3.10;;
45909;SDS011;31622;55.416;37.840;2023-04-25T14:06:22;6.93;;;3.55;;
45909;SDS011;31622;55.416;37.840;2023-04-25T14:08:52;5.20;;;3.05;;
45909;SDS011;31622;55.416;37.840;2023-04-25T14:11:19;8.73;;;3.20;;
45909;SDS011;31622;55.416;37.840;2023-04-25T14:13:45;6.55;;;3.30;;
45909;SDS011;31622;55.416;37.840;2023-04-25T14:16:11;5.60;;;3.40;;
45909;SDS011;31622;55.416;37.840;2023-04-25T14:18:37;6.63;;;3.38;;
45909;SDS011;31622;55.416;37.840;2023-04-25T14:21:03;6.15;;;3.08;;
45909;SDS011;31622;55.416;37.840;2023-04-25T14:23:28;4.53;;;3.00;;
45909;SDS011;31622;55.416;37.840;2023-04-25T14:25:54;5.45;;;3.08;;
45909;SDS011;31622;55.416;37.840;2023-04-25T14:28:20;5.32;;;2.92;;
45909;SDS011;31622;55.416;37.840;2023-04-25T14:30:45;5.43;;;3.00;;
45909;SDS011;31622;55.416;37.840;2023-04-25T14:33:11;6.72;;;3.10;;
45909;SDS011;31622;55.416;37.840;2023-04-25T14:35:37;5.25;;;3.00;;
45909;SDS011;31622;55.416;37.840;2023-04-25T14:38:03;4.60;;;3.13;;
45909;SDS011;31622;55.416;37.840;2023-04-25T14:40:28;5.70;;;2.88;;
45909;SDS011;31622;55.416;37.840;2023-04-25T14:42:54;4.20;;;2.55;;
45909;SDS011;31622;55.416;37.840;2023-04-25T14:45:20;6.85;;;3.58;;
45909;SDS011;31622;55.416;37.840;2023-04-25T14:47:46;6.05;;;3.15;;
45909;SDS011;31622;55.416;37.840;2023-04-25T14:50:11;7.97;;;3.28;;
45909;SDS011;31622;55.416;37.840;2023-04-25T14:52:37;4.05;;;3.00;;
45909;SDS011;31622;55.416;37.840;2023-04-25T14:55:03;6.40;;;3.20;;
45909;SDS011;31622;55.416;37.840;2023-04-25T14:57:32;5.80;;;2.80;;